Terminal Aerodrome Forecast
Issued by NWS Portland, OR

Home | Current Version | Previous Version | Text Only | Print | Product List | Glossary On
Versions: 1 2 3 4 5 6 7 8 9 10 11 12 13 14 15 16 17 18 19 20 21 22 23 24
000
FTUS46 KPQR 232335
TAFSLE
TAF
KSLE 232335Z 2400/2424 22010KT P6SM -RA SCT040 OVC060
     FM240300 20009KT P6SM -RA SCT025 OVC035
     FM241100 18010KT P6SM -RA BKN025 OVC035
     FM241800 22012G21KT P6SM -SHRA SCT015 OVC025=

USA.gov is the U.S. government's official web portal to all federal, state and local government web resources and services.